sensor_id;sensor_type;location;lat;lon;timestamp;pressure;altitude;pressure_sealevel;temperature;humidity
65010;BME280;51556;50.002;22.014;2024-02-16T00:00:06;99912.56;;;2.29;69.68
65010;BME280;51556;50.002;22.014;2024-02-16T00:02:32;99913.80;;;2.30;69.63
65010;BME280;51556;50.002;22.014;2024-02-16T00:04:58;99912.27;;;2.31;69.44
65010;BME280;51556;50.002;22.014;2024-02-16T00:07:24;99911.91;;;2.31;69.46
65010;BME280;51556;50.002;22.014;2024-02-16T00:09:49;99909.10;;;2.29;69.60
65010;BME280;51556;50.002;22.014;2024-02-16T00:12:15;99902.02;;;2.32;69.60
65010;BME280;51556;50.002;22.014;2024-02-16T00:14:42;99903.73;;;2.30;69.35
65010;BME280;51556;50.002;22.014;2024-02-16T00:17:08;99903.38;;;2.30;69.76
65010;BME280;51556;50.002;22.014;2024-02-16T00:19:35;99897.80;;;2.29;69.85
65010;BME280;51556;50.002;22.014;2024-02-16T00:22:01;99894.86;;;2.29;69.63
65010;BME280;51556;50.002;22.014;2024-02-16T00:24:26;99897.34;;;2.33;69.63
65010;BME280;51556;50.002;22.014;2024-02-16T00:26:52;99895.98;;;2.34;69.55
65010;BME280;51556;50.002;22.014;2024-02-16T00:29:17;99898.11;;;2.37;69.25
65010;BME280;51556;50.002;22.014;2024-02-16T00:31:44;99895.36;;;2.39;69.62
65010;BME280;51556;50.002;22.014;2024-02-16T00:34:10;99896.79;;;2.41;69.34
65010;BME280;51556;50.002;22.014;2024-02-16T00:36:35;99892.58;;;2.39;69.53
65010;BME280;51556;50.002;22.014;2024-02-16T00:39:02;99891.52;;;2.38;69.72
65010;BME280;51556;50.002;22.014;2024-02-16T00:41:29;99891.70;;;2.39;69.49
65010;BME280;51556;50.002;22.014;2024-02-16T00:43:54;99889.24;;;2.37;69.38
65010;BME280;51556;50.002;22.014;2024-02-16T00:46:22;99891.11;;;2.33;69.46
65010;BME280;51556;50.002;22.014;2024-02-16T00:48:54;99890.09;;;2.35;69.68
65010;BME280;51556;50.002;22.014;2024-02-16T00:51:20;99893.05;;;2.36;70.03
65010;BME280;51556;50.002;22.014;2024-02-16T00:53:46;99890.29;;;2.37;69.56
65010;BME280;51556;50.002;22.014;2024-02-16T00:56:12;99892.75;;;2.39;69.64
65010;BME280;51556;50.002;22.014;2024-02-16T00:58:40;99891.19;;;2.38;69.48
65010;BME280;51556;50.002;22.014;2024-02-16T01:01:07;99889.63;;;2.40;69.64
65010;BME280;51556;50.002;22.014;2024-02-16T01:03:36;99890.85;;;2.40;69.30
65010;BME280;51556;50.002;22.014;2024-02-16T01:06:03;99888.55;;;2.36;69.20
65010;BME280;51556;50.002;22.014;2024-02-16T01:08:29;99886.78;;;2.35;69.66
65010;BME280;51556;50.002;22.014;2024-02-16T01:10:55;99882.59;;;2.33;69.42
65010;BME280;51556;50.002;22.014;2024-02-16T01:13:21;99882.23;;;2.33;69.68
65010;BME280;51556;50.002;22.014;2024-02-16T01:15:46;99883.43;;;2.32;69.89
65010;BME280;51556;50.002;22.014;2024-02-16T01:18:12;99881.28;;;2.28;69.72
65010;BME280;51556;50.002;22.014;2024-02-16T01:20:37;99876.76;;;2.28;69.86
65010;BME280;51556;50.002;22.014;2024-02-16T01:23:03;99876.26;;;2.28;69.85
65010;BME280;51556;50.002;22.014;2024-02-16T01:25:30;99879.39;;;2.30;69.63
65010;BME280;51556;50.002;22.014;2024-02-16T01:27:56;99878.02;;;2.30;69.69
65010;BME280;51556;50.002;22.014;2024-02-16T01:30:21;99877.16;;;2.31;69.73
65010;BME280;51556;50.002;22.014;2024-02-16T01:32:47;99877.89;;;2.33;69.76
65010;BME280;51556;50.002;22.014;2024-02-16T01:35:13;99878.09;;;2.34;69.52
65010;BME280;51556;50.002;22.014;2024-02-16T01:37:40;99874.77;;;2.34;69.91
65010;BME280;51556;50.002;22.014;2024-02-16T01:40:07;99875.79;;;2.31;69.60
65010;BME280;51556;50.002;22.014;2024-02-16T01:42:34;99873.30;;;2.28;69.82
65010;BME280;51556;50.002;22.014;2024-02-16T01:44:59;99872.91;;;2.26;69.97
65010;BME280;51556;50.002;22.014;2024-02-16T01:47:25;99870.80;;;2.24;70.07
65010;BME280;51556;50.002;22.014;2024-02-16T01:49:51;99875.27;;;2.19;69.99
65010;BME280;51556;50.002;22.014;2024-02-16T01:52:16;99874.20;;;2.18;70.42
65010;BME280;51556;50.002;22.014;2024-02-16T01:54:42;99874.19;;;2.17;70.35
65010;BME280;51556;50.002;22.014;2024-02-16T01:57:09;99875.97;;;2.20;70.56
65010;BME280;51556;50.002;22.014;2024-02-16T01:59:36;99876.86;;;2.22;70.26
65010;BME280;51556;50.002;22.014;2024-02-16T02:02:02;99876.65;;;2.19;70.19
65010;BME280;51556;50.002;22.014;2024-02-16T02:04:27;99874.94;;;2.20;70.30
65010;BME280;51556;50.002;22.014;2024-02-16T02:06:54;99869.55;;;2.21;70.41
65010;BME280;51556;50.002;22.014;2024-02-16T02:09:19;99870.27;;;2.23;70.63
65010;BME280;51556;50.002;22.014;2024-02-16T02:11:45;99872.17;;;2.24;70.49
65010;BME280;51556;50.002;22.014;2024-02-16T02:14:10;99871.17;;;2.26;70.60
65010;BME280;51556;50.002;22.014;2024-02-16T02:16:36;99872.76;;;2.27;70.40
65010;BME280;51556;50.002;22.014;2024-02-16T02:19:02;99873.63;;;2.27;70.47
65010;BME280;51556;50.002;22.014;2024-02-16T02:21:28;99870.13;;;2.26;70.16
65010;BME280;51556;50.002;22.014;2024-02-16T02:23:53;99873.23;;;2.25;70.50
65010;BME280;51556;50.002;22.014;2024-02-16T02:26:19;99871.16;;;2.25;70.44
65010;BME280;51556;50.002;22.014;2024-02-16T02:28:44;99871.35;;;2.26;70.73
65010;BME280;51556;50.002;22.014;2024-02-16T02:31:11;99872.38;;;2.25;70.28
65010;BME280;51556;50.002;22.014;2024-02-16T02:33:36;99872.58;;;2.28;70.59
65010;BME280;51556;50.002;22.014;2024-02-16T02:36:01;99875.70;;;2.26;70.47
65010;BME280;51556;50.002;22.014;2024-02-16T02:38:29;99876.88;;;2.24;70.34
65010;BME280;51556;50.002;22.014;2024-02-16T02:40:55;99874.06;;;2.21;70.39
65010;BME280;51556;50.002;22.014;2024-02-16T02:43:22;99869.91;;;2.21;70.57
65010;BME280;51556;50.002;22.014;2024-02-16T02:45:48;99871.12;;;2.21;70.48
65010;BME280;51556;50.002;22.014;2024-02-16T02:48:14;99872.14;;;2.20;70.68
65010;BME280;51556;50.002;22.014;2024-02-16T02:50:39;99871.27;;;2.19;70.52
65010;BME280;51556;50.002;22.014;2024-02-16T02:53:05;99868.95;;;2.17;70.70
65010;BME280;51556;50.002;22.014;2024-02-16T02:55:31;99865.67;;;2.17;70.58
65010;BME280;51556;50.002;22.014;2024-02-16T02:57:57;99863.95;;;2.18;70.61
65010;BME280;51556;50.002;22.014;2024-02-16T03:00:23;99867.21;;;2.16;70.50
65010;BME280;51556;50.002;22.014;2024-02-16T03:02:49;99866.86;;;2.15;70.74
65010;BME280;51556;50.002;22.014;2024-02-16T03:05:14;99869.77;;;2.14;70.45
65010;BME280;51556;50.002;22.014;2024-02-16T03:07:40;99867.32;;;2.12;70.29
65010;BME280;51556;50.002;22.014;2024-02-16T03:10:06;99867.61;;;2.09;70.51
65010;BME280;51556;50.002;22.014;2024-02-16T03:12:34;99869.38;;;2.11;70.42
65010;BME280;51556;50.002;22.014;2024-02-16T03:15:00;99872.83;;;2.09;70.54
65010;BME280;51556;50.002;22.014;2024-02-16T03:17:25;99873.84;;;2.08;70.31
65010;BME280;51556;50.002;22.014;2024-02-16T03:19:50;99875.06;;;2.08;70.41
65010;BME280;51556;50.002;22.014;2024-02-16T03:22:17;99872.11;;;2.08;70.08
65010;BME280;51556;50.002;22.014;2024-02-16T03:24:42;99868.26;;;2.06;70.23
65010;BME280;51556;50.002;22.014;2024-02-16T03:27:09;99874.02;;;2.07;70.17
65010;BME280;51556;50.002;22.014;2024-02-16T03:29:36;99875.14;;;2.12;70.44
65010;BME280;51556;50.002;22.014;2024-02-16T03:32:01;99873.45;;;2.15;70.18
65010;BME280;51556;50.002;22.014;2024-02-16T03:34:27;99873.38;;;2.11;70.02
65010;BME280;51556;50.002;22.014;2024-02-16T03:36:52;99873.65;;;2.07;70.07
65010;BME280;51556;50.002;22.014;2024-02-16T03:39:18;99873.94;;;2.04;69.89
65010;BME280;51556;50.002;22.014;2024-02-16T03:41:45;99875.14;;;2.02;69.93
65010;BME280;51556;50.002;22.014;2024-02-16T03:44:14;99878.23;;;2.00;70.09
65010;BME280;51556;50.002;22.014;2024-02-16T03:46:40;99879.20;;;1.96;69.91
65010;BME280;51556;50.002;22.014;2024-02-16T03:49:05;99882.48;;;1.96;69.97
65010;BME280;51556;50.002;22.014;2024-02-16T03:51:31;99883.65;;;1.93;70.15
65010;BME280;51556;50.002;22.014;2024-02-16T03:53:56;99887.80;;;1.92;70.26
65010;BME280;51556;50.002;22.014;2024-02-16T03:56:21;99881.55;;;1.91;70.20
65010;BME280;51556;50.002;22.014;2024-02-16T03:58:47;99885.57;;;1.93;70.24
65010;BME280;51556;50.002;22.014;2024-02-16T04:01:13;99882.98;;;1.94;70.15
65010;BME280;51556;50.002;22.014;2024-02-16T04:03:38;99890.33;;;1.97;70.26
65010;BME280;51556;50.002;22.014;2024-02-16T04:06:04;99883.95;;;2.00;70.36
65010;BME280;51556;50.002;22.014;2024-02-16T04:08:30;99887.75;;;1.98;69.93
65010;BME280;51556;50.002;22.014;2024-02-16T04:10:55;99889.45;;;1.96;69.78
65010;BME280;51556;50.002;22.014;2024-02-16T04:13:20;99888.17;;;1.93;70.13
65010;BME280;51556;50.002;22.014;2024-02-16T04:15:46;99891.45;;;1.92;70.01
65010;BME280;51556;50.002;22.014;2024-02-16T04:18:11;99893.65;;;1.89;69.84
65010;BME280;51556;50.002;22.014;2024-02-16T04:20:37;99896.41;;;1.88;69.98
65010;BME280;51556;50.002;22.014;2024-02-16T04:23:03;99895.71;;;1.88;69.92
65010;BME280;51556;50.002;22.014;2024-02-16T04:25:28;99892.11;;;1.90;69.98
65010;BME280;51556;50.002;22.014;2024-02-16T04:27:54;99894.04;;;1.91;69.92
65010;BME280;51556;50.002;22.014;2024-02-16T04:30:19;99887.95;;;1.90;69.65
65010;BME280;51556;50.002;22.014;2024-02-16T04:32:45;99891.02;;;1.86;69.71
65010;BME280;51556;50.002;22.014;2024-02-16T04:35:10;99890.08;;;1.81;69.48
65010;BME280;51556;50.002;22.014;2024-02-16T04:37:40;99890.33;;;1.76;69.65
65010;BME280;51556;50.002;22.014;2024-02-16T04:40:06;99890.98;;;1.75;69.83
65010;BME280;51556;50.002;22.014;2024-02-16T04:42:31;99892.53;;;1.74;69.84
65010;BME280;51556;50.002;22.014;2024-02-16T04:44:57;99892.32;;;1.72;69.69
65010;BME280;51556;50.002;22.014;2024-02-16T04:47:25;99884.86;;;1.72;69.77
65010;BME280;51556;50.002;22.014;2024-02-16T04:49:50;99884.52;;;1.73;69.89
65010;BME280;51556;50.002;22.014;2024-02-16T04:52:16;99885.26;;;1.75;69.72
65010;BME280;51556;50.002;22.014;2024-02-16T04:54:41;99886.37;;;1.78;69.82
65010;BME280;51556;50.002;22.014;2024-02-16T04:57:06;99885.98;;;1.76;69.64
65010;BME280;51556;50.002;22.014;2024-02-16T04:59:32;99881.98;;;1.75;69.76
65010;BME280;51556;50.002;22.014;2024-02-16T05:01:58;99884.02;;;1.74;69.38
65010;BME280;51556;50.002;22.014;2024-02-16T05:04:23;99885.89;;;1.72;69.61
65010;BME280;51556;50.002;22.014;2024-02-16T05:06:49;99885.77;;;1.75;69.60
65010;BME280;51556;50.002;22.014;2024-02-16T05:09:17;99887.67;;;1.74;69.60
65010;BME280;51556;50.002;22.014;2024-02-16T05:11:45;99891.11;;;1.73;69.61
65010;BME280;51556;50.002;22.014;2024-02-16T05:14:11;99894.00;;;1.69;69.35
65010;BME280;51556;50.002;22.014;2024-02-16T05:16:46;99888.69;;;1.63;69.65
65010;BME280;51556;50.002;22.014;2024-02-16T05:19:12;99888.80;;;1.61;69.71
65010;BME280;51556;50.002;22.014;2024-02-16T05:21:37;99888.91;;;1.57;69.79
65010;BME280;51556;50.002;22.014;2024-02-16T05:24:03;99894.77;;;1.55;69.75
65010;BME280;51556;50.002;22.014;2024-02-16T05:26:29;99893.70;;;1.54;69.85
65010;BME280;51556;50.002;22.014;2024-02-16T05:28:54;99894.38;;;1.53;69.95
65010;BME280;51556;50.002;22.014;2024-02-16T05:31:19;99898.50;;;1.51;69.70
65010;BME280;51556;50.002;22.014;2024-02-16T05:33:48;99897.29;;;1.51;69.97
65010;BME280;51556;50.002;22.014;2024-02-16T05:36:18;99897.66;;;1.52;70.00
65010;BME280;51556;50.002;22.014;2024-02-16T05:38:46;99893.29;;;1.51;70.03
65010;BME280;51556;50.002;22.014;2024-02-16T05:41:12;99896.40;;;1.50;69.71
65010;BME280;51556;50.002;22.014;2024-02-16T05:43:37;99891.86;;;1.47;70.00
65010;BME280;51556;50.002;22.014;2024-02-16T05:46:03;99895.67;;;1.47;69.95
65010;BME280;51556;50.002;22.014;2024-02-16T05:48:33;99897.20;;;1.45;70.16
65010;BME280;51556;50.002;22.014;2024-02-16T05:51:00;99900.13;;;1.44;70.16
65010;BME280;51556;50.002;22.014;2024-02-16T05:53:27;99903.11;;;1.46;70.18
65010;BME280;51556;50.002;22.014;2024-02-16T05:55:55;99903.66;;;1.49;70.15
65010;BME280;51556;50.002;22.014;2024-02-16T05:58:21;99905.90;;;1.47;69.98
65010;BME280;51556;50.002;22.014;2024-02-16T06:00:47;99907.77;;;1.45;70.13
65010;BME280;51556;50.002;22.014;2024-02-16T06:03:13;99911.74;;;1.44;70.08
65010;BME280;51556;50.002;22.014;2024-02-16T06:05:39;99913.66;;;1.44;70.33
65010;BME280;51556;50.002;22.014;2024-02-16T06:08:06;99917.15;;;1.45;70.21
65010;BME280;51556;50.002;22.014;2024-02-16T06:10:32;99914.33;;;1.43;70.42
65010;BME280;51556;50.002;22.014;2024-02-16T06:12:58;99919.89;;;1.43;70.34
65010;BME280;51556;50.002;22.014;2024-02-16T06:15:24;99920.25;;;1.44;70.46
65010;BME280;51556;50.002;22.014;2024-02-16T06:17:50;99923.58;;;1.46;70.46
65010;BME280;51556;50.002;22.014;2024-02-16T06:20:16;99925.54;;;1.48;70.52
65010;BME280;51556;50.002;22.014;2024-02-16T06:22:41;99924.32;;;1.49;70.67
65010;BME280;51556;50.002;22.014;2024-02-16T06:25:08;99926.08;;;1.51;70.54
65010;BME280;51556;50.002;22.014;2024-02-16T06:27:33;99930.80;;;1.52;70.69
65010;BME280;51556;50.002;22.014;2024-02-16T06:29:59;99931.50;;;1.53;70.65
65010;BME280;51556;50.002;22.014;2024-02-16T06:32:24;99931.20;;;1.55;70.73
65010;BME280;51556;50.002;22.014;2024-02-16T06:34:49;99935.20;;;1.55;70.62
65010;BME280;51556;50.002;22.014;2024-02-16T06:37:15;99940.86;;;1.61;70.85
65010;BME280;51556;50.002;22.014;2024-02-16T06:39:40;99943.73;;;1.65;70.92
65010;BME280;51556;50.002;22.014;2024-02-16T06:42:06;99947.11;;;1.69;70.95
65010;BME280;51556;50.002;22.014;2024-02-16T06:44:31;99946.81;;;1.72;70.85
65010;BME280;51556;50.002;22.014;2024-02-16T06:46:56;99950.20;;;1.76;70.92
65010;BME280;51556;50.002;22.014;2024-02-16T06:49:22;99950.31;;;1.82;71.11
65010;BME280;51556;50.002;22.014;2024-02-16T06:51:47;99951.40;;;1.85;70.93
65010;BME280;51556;50.002;22.014;2024-02-16T06:54:13;99949.19;;;1.88;71.29
65010;BME280;51556;50.002;22.014;2024-02-16T06:56:39;99945.20;;;1.89;71.23
65010;BME280;51556;50.002;22.014;2024-02-16T06:59:05;99943.69;;;1.91;71.64
65010;BME280;51556;50.002;22.014;2024-02-16T07:01:30;99947.75;;;1.94;71.44
65010;BME280;51556;50.002;22.014;2024-02-16T07:03:56;99949.45;;;2.02;71.86
65010;BME280;51556;50.002;22.014;2024-02-16T07:06:21;99949.16;;;2.14;72.02
65010;BME280;51556;50.002;22.014;2024-02-16T07:08:47;99950.15;;;2.21;71.78
65010;BME280;51556;50.002;22.014;2024-02-16T07:11:12;99948.16;;;2.28;71.89
65010;BME280;51556;50.002;22.014;2024-02-16T07:13:41;99952.94;;;2.32;71.79
65010;BME280;51556;50.002;22.014;2024-02-16T07:16:08;99955.12;;;2.38;72.00
65010;BME280;51556;50.002;22.014;2024-02-16T07:18:33;99957.83;;;2.44;72.05
65010;BME280;51556;50.002;22.014;2024-02-16T07:20:59;99961.45;;;2.53;72.19
65010;BME280;51556;50.002;22.014;2024-02-16T07:23:25;99954.78;;;2.59;72.01
65010;BME280;51556;50.002;22.014;2024-02-16T07:25:50;99957.11;;;2.65;72.09
65010;BME280;51556;50.002;22.014;2024-02-16T07:28:16;99954.98;;;2.73;72.18
65010;BME280;51556;50.002;22.014;2024-02-16T07:30:41;99957.77;;;2.85;72.59
65010;BME280;51556;50.002;22.014;2024-02-16T07:33:07;99952.56;;;2.97;72.48
65010;BME280;51556;50.002;22.014;2024-02-16T07:35:33;99950.65;;;3.10;72.42
65010;BME280;51556;50.002;22.014;2024-02-16T07:38:01;99952.05;;;3.23;72.35
65010;BME280;51556;50.002;22.014;2024-02-16T07:40:27;99952.19;;;3.32;72.61
65010;BME280;51556;50.002;22.014;2024-02-16T07:42:53;99953.19;;;3.45;72.62
65010;BME280;51556;50.002;22.014;2024-02-16T07:45:19;99953.71;;;3.58;72.18
65010;BME280;51556;50.002;22.014;2024-02-16T07:47:45;99952.30;;;3.71;72.34
65010;BME280;51556;50.002;22.014;2024-02-16T07:50:10;99950.84;;;3.83;72.68
65010;BME280;51556;50.002;22.014;2024-02-16T07:52:38;99953.25;;;3.95;72.75
65010;BME280;51556;50.002;22.014;2024-02-16T07:55:05;99950.42;;;4.09;72.71
65010;BME280;51556;50.002;22.014;2024-02-16T07:57:30;99948.07;;;4.18;72.79
65010;BME280;51556;50.002;22.014;2024-02-16T07:59:56;99944.92;;;4.35;72.93
65010;BME280;51556;50.002;22.014;2024-02-16T08:02:21;99943.67;;;4.54;72.71
65010;BME280;51556;50.002;22.014;2024-02-16T08:04:48;99945.20;;;4.70;72.73
65010;BME280;51556;50.002;22.014;2024-02-16T08:07:14;99939.73;;;4.87;72.67
65010;BME280;51556;50.002;22.014;2024-02-16T08:09:39;99940.90;;;5.06;72.47
65010;BME280;51556;50.002;22.014;2024-02-16T08:12:05;99937.50;;;5.23;72.22
65010;BME280;51556;50.002;22.014;2024-02-16T08:14:33;99938.11;;;5.42;72.50
65010;BME280;51556;50.002;22.014;2024-02-16T08:16:59;99937.98;;;5.55;72.13
65010;BME280;51556;50.002;22.014;2024-02-16T08:19:32;99940.84;;;5.72;72.03
65010;BME280;51556;50.002;22.014;2024-02-16T08:21:59;99940.73;;;5.86;71.64
65010;BME280;51556;50.002;22.014;2024-02-16T08:24:24;99942.34;;;5.96;71.07
65010;BME280;51556;50.002;22.014;2024-02-16T08:26:50;99940.09;;;6.07;70.61
65010;BME280;51556;50.002;22.014;2024-02-16T08:29:16;99935.56;;;6.15;70.29
65010;BME280;51556;50.002;22.014;2024-02-16T08:31:41;99933.30;;;6.22;70.32
65010;BME280;51556;50.002;22.014;2024-02-16T08:34:07;99934.87;;;6.35;70.23
65010;BME280;51556;50.002;22.014;2024-02-16T08:36:32;99938.20;;;6.47;69.78
65010;BME280;51556;50.002;22.014;2024-02-16T08:38:59;99930.52;;;6.59;69.39
65010;BME280;51556;50.002;22.014;2024-02-16T08:41:24;99932.24;;;6.69;69.28
65010;BME280;51556;50.002;22.014;2024-02-16T08:43:50;99932.76;;;6.82;69.15
65010;BME280;51556;50.002;22.014;2024-02-16T08:46:15;99934.33;;;6.94;68.85
65010;BME280;51556;50.002;22.014;2024-02-16T08:48:41;99933.77;;;7.06;68.60
65010;BME280;51556;50.002;22.014;2024-02-16T08:51:06;99930.77;;;7.18;68.27
65010;BME280;51556;50.002;22.014;2024-02-16T08:53:32;99929.16;;;7.27;67.23
65010;BME280;51556;50.002;22.014;2024-02-16T08:55:57;99926.67;;;7.37;67.64
65010;BME280;51556;50.002;22.014;2024-02-16T08:58:23;99929.41;;;7.49;67.75
65010;BME280;51556;50.002;22.014;2024-02-16T09:00:48;99929.54;;;7.61;67.14
65010;BME280;51556;50.002;22.014;2024-02-16T09:03:15;99925.29;;;7.74;66.85
65010;BME280;51556;50.002;22.014;2024-02-16T09:05:42;99926.08;;;7.87;66.43
65010;BME280;51556;50.002;22.014;2024-02-16T09:08:09;99929.38;;;7.92;66.49
65010;BME280;51556;50.002;22.014;2024-02-16T09:10:34;99923.02;;;8.02;66.42
65010;BME280;51556;50.002;22.014;2024-02-16T09:13:00;99926.12;;;8.12;65.94
65010;BME280;51556;50.002;22.014;2024-02-16T09:15:25;99928.28;;;8.24;66.32
65010;BME280;51556;50.002;22.014;2024-02-16T09:17:51;99928.92;;;8.39;65.79
65010;BME280;51556;50.002;22.014;2024-02-16T09:20:16;99927.27;;;8.50;65.50
65010;BME280;51556;50.002;22.014;2024-02-16T09:22:47;99923.30;;;8.59;65.04
65010;BME280;51556;50.002;22.014;2024-02-16T09:25:13;99923.40;;;8.69;65.05
65010;BME280;51556;50.002;22.014;2024-02-16T09:27:39;99923.84;;;8.81;64.57
65010;BME280;51556;50.002;22.014;2024-02-16T09:30:07;99925.11;;;8.93;63.77
65010;BME280;51556;50.002;22.014;2024-02-16T09:32:36;99923.25;;;9.02;63.63
65010;BME280;51556;50.002;22.014;2024-02-16T09:35:04;99918.57;;;9.14;62.89
65010;BME280;51556;50.002;22.014;2024-02-16T09:37:29;99920.42;;;9.22;63.46
65010;BME280;51556;50.002;22.014;2024-02-16T09:39:55;99918.30;;;9.36;63.16
65010;BME280;51556;50.002;22.014;2024-02-16T09:42:23;99922.37;;;9.50;62.39
65010;BME280;51556;50.002;22.014;2024-02-16T09:44:50;99919.45;;;9.59;61.53
65010;BME280;51556;50.002;22.014;2024-02-16T09:47:16;99924.60;;;9.67;61.48
65010;BME280;51556;50.002;22.014;2024-02-16T09:49:45;99922.85;;;9.80;61.92
65010;BME280;51556;50.002;22.014;2024-02-16T09:52:11;99918.78;;;9.95;61.76
65010;BME280;51556;50.002;22.014;2024-02-16T09:54:37;99919.25;;;10.10;60.95
65010;BME280;51556;50.002;22.014;2024-02-16T09:57:04;99918.60;;;10.20;60.40
65010;BME280;51556;50.002;22.014;2024-02-16T09:59:29;99920.20;;;10.31;60.79
65010;BME280;51556;50.002;22.014;2024-02-16T10:02:03;99917.57;;;10.41;59.70
65010;BME280;51556;50.002;22.014;2024-02-16T10:04:29;99909.16;;;10.50;59.55
65010;BME280;51556;50.002;22.014;2024-02-16T10:06:54;99913.92;;;10.60;59.42
65010;BME280;51556;50.002;22.014;2024-02-16T10:09:28;99917.64;;;10.69;58.81
65010;BME280;51556;50.002;22.014;2024-02-16T10:11:57;99915.04;;;10.77;58.43
65010;BME280;51556;50.002;22.014;2024-02-16T10:14:23;99912.25;;;10.85;58.54
65010;BME280;51556;50.002;22.014;2024-02-16T10:17:04;99911.70;;;10.97;58.11
65010;BME280;51556;50.002;22.014;2024-02-16T10:19:32;99910.98;;;11.07;56.76
65010;BME280;51556;50.002;22.014;2024-02-16T10:22:08;99909.13;;;11.12;56.64
65010;BME280;51556;50.002;22.014;2024-02-16T10:24:34;99906.85;;;11.19;56.85
65010;BME280;51556;50.002;22.014;2024-02-16T10:26:59;99907.92;;;11.27;56.86
65010;BME280;51556;50.002;22.014;2024-02-16T10:29:27;99906.30;;;11.38;56.16
65010;BME280;51556;50.002;22.014;2024-02-16T10:31:52;99905.07;;;11.48;56.19
65010;BME280;51556;50.002;22.014;2024-02-16T10:34:19;99901.63;;;11.59;55.47
65010;BME280;51556;50.002;22.014;2024-02-16T10:36:48;99902.33;;;11.68;55.86
65010;BME280;51556;50.002;22.014;2024-02-16T10:39:14;99903.19;;;11.79;55.66
65010;BME280;51556;50.002;22.014;2024-02-16T10:41:41;99897.40;;;11.93;56.18
65010;BME280;51556;50.002;22.014;2024-02-16T10:44:07;99897.91;;;12.10;54.10
65010;BME280;51556;50.002;22.014;2024-02-16T10:46:33;99898.38;;;12.12;54.24
65010;BME280;51556;50.002;22.014;2024-02-16T10:48:59;99896.60;;;12.20;54.00
65010;BME280;51556;50.002;22.014;2024-02-16T10:51:31;99889.63;;;12.30;53.35
65010;BME280;51556;50.002;22.014;2024-02-16T10:54:00;99882.15;;;12.40;53.67
65010;BME280;51556;50.002;22.014;2024-02-16T10:56:36;99881.10;;;12.54;53.93
65010;BME280;51556;50.002;22.014;2024-02-16T10:59:08;99875.23;;;12.69;53.93
65010;BME280;51556;50.002;22.014;2024-02-16T11:01:41;99873.29;;;12.90;53.35
65010;BME280;51556;50.002;22.014;2024-02-16T11:04:08;99872.26;;;13.07;52.42
65010;BME280;51556;50.002;22.014;2024-02-16T11:06:54;99872.05;;;13.23;51.28
65010;BME280;51556;50.002;22.014;2024-02-16T11:12:00;99866.59;;;13.47;51.96
65010;BME280;51556;50.002;22.014;2024-02-16T11:14:36;99864.68;;;13.63;49.98
65010;BME280;51556;50.002;22.014;2024-02-16T11:17:07;99863.02;;;13.71;50.12
65010;BME280;51556;50.002;22.014;2024-02-16T11:19:34;99857.62;;;13.80;49.41
65010;BME280;51556;50.002;22.014;2024-02-16T11:22:03;99854.13;;;13.90;50.45
65010;BME280;51556;50.002;22.014;2024-02-16T11:24:36;99848.62;;;14.01;50.10
65010;BME280;51556;50.002;22.014;2024-02-16T11:27:05;99843.56;;;14.15;49.48
65010;BME280;51556;50.002;22.014;2024-02-16T11:29:37;99844.58;;;14.22;47.58
65010;BME280;51556;50.002;22.014;2024-02-16T11:32:04;99843.94;;;14.15;48.32
65010;BME280;51556;50.002;22.014;2024-02-16T11:34:31;99842.98;;;14.22;48.40
65010;BME280;51556;50.002;22.014;2024-02-16T11:37:01;99839.91;;;14.30;48.10
65010;BME280;51556;50.002;22.014;2024-02-16T11:39:28;99827.88;;;14.35;48.21
65010;BME280;51556;50.002;22.014;2024-02-16T11:42:09;99825.52;;;14.53;48.11
65010;BME280;51556;50.002;22.014;2024-02-16T11:44:39;99827.24;;;14.70;47.25
65010;BME280;51556;50.002;22.014;2024-02-16T11:47:06;99823.15;;;14.81;46.46
65010;BME280;51556;50.002;22.014;2024-02-16T11:49:40;99822.41;;;14.95;47.34
65010;BME280;51556;50.002;22.014;2024-02-16T11:52:07;99817.58;;;15.12;46.19
65010;BME280;51556;50.002;22.014;2024-02-16T11:54:32;99813.48;;;15.17;45.81
65010;BME280;51556;50.002;22.014;2024-02-16T11:56:58;99808.78;;;15.28;46.45
65010;BME280;51556;50.002;22.014;2024-02-16T11:59:24;99807.49;;;15.49;45.80
65010;BME280;51556;50.002;22.014;2024-02-16T12:01:56;99799.89;;;15.71;45.11
65010;BME280;51556;50.002;22.014;2024-02-16T12:04:26;99798.80;;;15.89;44.52
65010;BME280;51556;50.002;22.014;2024-02-16T12:07:02;99800.17;;;16.12;44.30
65010;BME280;51556;50.002;22.014;2024-02-16T12:09:28;99791.27;;;16.42;43.93
65010;BME280;51556;50.002;22.014;2024-02-16T12:11:54;99793.95;;;16.50;42.37
65010;BME280;51556;50.002;22.014;2024-02-16T12:14:23;99795.55;;;16.58;43.08
65010;BME280;51556;50.002;22.014;2024-02-16T12:16:56;99795.32;;;16.89;42.98
65010;BME280;51556;50.002;22.014;2024-02-16T12:19:21;99796.64;;;17.10;42.35
65010;BME280;51556;50.002;22.014;2024-02-16T12:21:55;99792.60;;;17.28;42.89
65010;BME280;51556;50.002;22.014;2024-02-16T12:24:22;99788.05;;;17.57;42.19
65010;BME280;51556;50.002;22.014;2024-02-16T12:26:48;99786.71;;;17.60;40.36
65010;BME280;51556;50.002;22.014;2024-02-16T12:29:14;99781.14;;;17.68;41.52
65010;BME280;51556;50.002;22.014;2024-02-16T12:31:41;99776.88;;;17.97;41.13
65010;BME280;51556;50.002;22.014;2024-02-16T12:34:08;99770.74;;;18.20;40.26
65010;BME280;51556;50.002;22.014;2024-02-16T12:36:34;99769.04;;;18.29;39.64
65010;BME280;51556;50.002;22.014;2024-02-16T12:39:00;99763.85;;;18.23;39.98
65010;BME280;51556;50.002;22.014;2024-02-16T12:41:26;99767.94;;;18.30;38.48
65010;BME280;51556;50.002;22.014;2024-02-16T12:43:51;99765.27;;;18.40;39.11
65010;BME280;51556;50.002;22.014;2024-02-16T12:46:18;99759.49;;;18.49;38.86
65010;BME280;51556;50.002;22.014;2024-02-16T12:48:44;99760.75;;;18.49;38.64
65010;BME280;51556;50.002;22.014;2024-02-16T12:51:09;99760.93;;;18.45;38.49
65010;BME280;51556;50.002;22.014;2024-02-16T12:53:36;99756.14;;;18.58;39.49
65010;BME280;51556;50.002;22.014;2024-02-16T12:56:09;99753.45;;;18.90;38.08